Time;durP1;ratioP1;P1;durP2;ratioP2;P2;SDS_P1;SDS_P2;PMS_P1;PMS_P2;Temp;Humidity;BMP_temperature;BMP_pressure;BME280_temperature;BME280_humidity;BME280_pressure;Samples;Min_cycle;Max_cycle;Signal;HPM_P1;HPM_P2
2023/06/07 00:01:33;;;;;;;10.50;4.30;;;;;;;17.54;53.38;100672.00;220544;1268;141184;-88
2023/06/07 00:06:34;;;;;;;7.50;4.10;;;;;;;17.53;53.50;100668.59;221143;1268;138282;-87
2023/06/07 00:11:35;;;;;;;7.80;3.60;;;;;;;17.54;53.54;100668.41;220461;1267;140181;-89
2023/06/07 00:16:35;;;;;;;9.30;4.00;;;;;;;17.55;53.58;100659.51;221007;1267;107642;-88
2023/06/07 00:21:36;;;;;;;10.80;4.50;;;;;;;17.59;53.80;100659.92;220320;1265;142259;-87
2023/06/07 00:26:36;;;;;;;12.30;4.30;;;;;;;17.62;53.54;100660.05;220959;1267;138248;-89
2023/06/07 00:31:37;;;;;;;7.80;3.50;;;;;;;17.65;53.62;100658.64;220678;1267;140085;-88
2023/06/07 00:36:38;;;;;;;9.00;4.00;;;;;;;17.65;53.76;100662.85;220791;1267;139039;-88
2023/06/07 00:41:38;;;;;;;8.00;4.30;;;;;;;17.63;53.75;100660.73;220361;1265;140072;-88
2023/06/07 00:46:39;;;;;;;8.30;4.30;;;;;;;17.59;54.00;100659.45;221122;1265;97899;-88
2023/06/07 00:51:40;;;;;;;7.50;4.30;;;;;;;17.54;54.55;100655.45;220714;1266;140404;-88
2023/06/07 00:56:41;;;;;;;10.20;4.60;;;;;;;17.48;54.84;100647.19;220998;1265;138563;-88
2023/06/07 01:01:44;;;;;;;9.90;4.30;;;;;;;17.40;55.12;100648.32;220413;1267;141340;-87
2023/06/07 01:06:45;;;;;;;9.40;4.40;;;;;;;17.32;55.44;100646.18;220845;1268;138189;-87
2023/06/07 01:11:50;;;;;;;13.00;5.10;;;;;;;17.23;55.49;100652.96;220467;1265;141580;-87
2023/06/07 01:16:52;;;;;;;10.50;4.20;;;;;;;17.15;55.44;100653.46;221192;1268;138416;-87
2023/06/07 01:22:11;;;;;;;11.30;5.20;;;;;;;17.09;55.79;100651.31;220673;1266;139912;-88
2023/06/07 01:27:13;;;;;;;10.10;5.20;;;;;;;17.02;56.11;100644.16;220733;1265;137962;-88
2023/06/07 01:32:13;;;;;;;10.10;5.10;;;;;;;16.98;56.19;100643.83;220246;1266;140020;-87
2023/06/07 01:37:14;;;;;;;10.50;5.10;;;;;;;16.93;56.46;100644.11;220920;1265;138622;-88
2023/06/07 01:42:16;;;;;;;9.10;4.60;;;;;;;16.89;56.90;100645.83;220373;1265;140678;-87
2023/06/07 01:47:17;;;;;;;13.00;6.50;;;;;;;16.83;57.03;100649.80;220818;1265;137970;-87
2023/06/07 01:52:17;;;;;;;13.60;5.90;;;;;;;16.76;57.62;100645.33;220429;1265;139958;-87
2023/06/07 01:57:37;;;;;;;8.70;5.00;;;;;;;16.69;57.84;100650.73;220779;1265;137882;-88
2023/06/07 02:02:48;;;;;;;9.90;5.10;;;;;;;16.60;58.29;100644.54;220196;1266;139687;-88
2023/06/07 02:07:51;;;;;;;11.30;5.00;;;;;;;16.52;58.63;100645.66;220735;1268;137986;-88
2023/06/07 02:12:54;;;;;;;10.80;5.90;;;;;;;16.46;58.81;100648.50;220022;1266;141156;-87
2023/06/07 02:18:01;;;;;;;9.00;5.00;;;;;;;16.39;59.27;100644.10;220788;1265;138252;-88
2023/06/07 02:23:02;;;;;;;14.50;6.40;;;;;;;16.32;59.57;100642.23;220283;1266;140378;-88
2023/06/07 02:28:02;;;;;;;11.20;5.40;;;;;;;16.26;59.76;100647.20;221138;1265;97940;-88
2023/06/07 02:33:04;;;;;;;10.40;5.20;;;;;;;16.19;59.84;100645.85;220488;1267;232321;-88
2023/06/07 02:38:05;;;;;;;9.70;5.50;;;;;;;16.11;60.41;100641.46;220837;1265;138131;-88
2023/06/07 02:43:06;;;;;;;10.00;5.40;;;;;;;16.04;60.66;100641.29;220301;1265;139439;-87
2023/06/07 02:48:07;;;;;;;8.90;5.20;;;;;;;15.96;60.91;100647.53;220891;1266;138214;-88
2023/06/07 02:53:07;;;;;;;12.70;5.40;;;;;;;15.88;61.28;100649.16;220300;1266;140359;-88
2023/06/07 02:58:07;;;;;;;10.40;5.40;;;;;;;15.83;61.13;100650.32;221119;1265;97918;-87
2023/06/07 03:03:08;;;;;;;9.30;5.00;;;;;;;15.78;61.38;100653.20;220314;1265;139664;-88
2023/06/07 03:08:10;;;;;;;9.90;4.90;;;;;;;15.74;61.87;100649.66;220979;1268;138725;-88
2023/06/07 03:13:11;;;;;;;13.20;5.70;;;;;;;15.68;62.13;100650.73;220121;1266;140453;-88
2023/06/07 03:18:15;;;;;;;12.00;5.90;;;;;;;15.63;62.49;100652.34;221385;1266;138762;-88
2023/06/07 03:23:16;;;;;;;10.00;5.50;;;;;;;15.59;62.76;100653.64;220987;1265;140843;-88
2023/06/07 03:28:16;;;;;;;13.50;5.80;;;;;;;15.57;63.06;100658.17;221163;1265;97768;-88
2023/06/07 03:33:16;;;;;;;11.80;5.40;;;;;;;15.54;63.64;100658.73;220536;1266;141350;-88
2023/06/07 03:38:17;;;;;;;10.20;4.90;;;;;;;15.52;63.91;100660.41;220862;1265;138131;-88
2023/06/07 03:43:17;;;;;;;9.10;5.80;;;;;;;15.52;64.31;100663.02;220181;1266;142062;-88
2023/06/07 03:48:18;;;;;;;12.40;5.70;;;;;;;15.52;64.31;100665.95;220846;1265;138611;-89
2023/06/07 03:53:18;;;;;;;10.90;5.80;;;;;;;15.52;64.57;100665.73;220379;1266;140175;-88
2023/06/07 03:58:18;;;;;;;9.60;5.40;;;;;;;15.53;64.95;100665.64;221096;1265;97924;-89
2023/06/07 04:03:24;;;;;;;12.30;5.30;;;;;;;15.56;65.31;100661.27;220436;1265;139481;-87
2023/06/07 04:08:24;;;;;;;12.00;5.90;;;;;;;15.59;65.76;100658.79;220741;1266;138348;-88
2023/06/07 04:13:25;;;;;;;13.80;5.50;;;;;;;15.63;66.20;100658.14;220608;1268;141373;-88
2023/06/07 04:18:25;;;;;;;8.60;5.00;;;;;;;15.71;66.90;100660.30;220885;1265;138250;-88
2023/06/07 04:23:26;;;;;;;8.60;4.60;;;;;;;15.84;66.95;100663.39;220531;1265;140837;-88
2023/06/07 04:28:27;;;;;;;9.10;4.90;;;;;;;16.02;66.95;100660.96;221200;1266;97684;-88
2023/06/07 04:33:27;;;;;;;9.30;3.90;;;;;;;16.33;64.18;100665.25;220318;1266;140053;-87
2023/06/07 04:38:29;;;;;;;12.50;4.50;;;;;;;16.69;62.79;100666.29;221143;1265;137813;-88
2023/06/07 04:43:30;;;;;;;10.20;4.60;;;;;;;17.05;62.37;100662.64;220343;1265;139626;-87
2023/06/07 04:48:31;;;;;;;10.60;4.70;;;;;;;17.47;60.91;100654.75;221089;1266;138832;-89
2023/06/07 04:53:39;;;;;;;12.00;4.60;;;;;;;17.87;60.24;100659.81;220502;1266;140313;-87
2023/06/07 04:58:40;;;;;;;10.10;4.50;;;;;;;18.30;58.68;100658.77;221116;1266;98394;-89
2023/06/07 05:03:42;;;;;;;10.50;4.80;;;;;;;18.75;57.37;100661.48;220771;1264;140523;-90
2023/06/07 05:08:43;;;;;;;10.60;4.40;;;;;;;19.25;55.97;100661.80;220861;1268;138738;-89
2023/06/07 05:13:43;;;;;;;10.40;4.80;;;;;;;19.72;54.74;100663.02;220437;1268;140200;-89
2023/06/07 05:18:48;;;;;;;10.70;4.50;;;;;;;20.26;54.16;100665.90;221020;1265;140551;-89
2023/06/07 05:23:49;;;;;;;10.40;4.10;;;;;;;20.88;52.49;100671.27;220641;1265;220336;-88
2023/06/07 05:28:51;;;;;;;8.40;4.20;;;;;;;21.46;51.08;100670.33;220445;1266;141277;-89
2023/06/07 05:33:52;;;;;;;10.30;4.10;;;;;;;22.10;50.19;100666.38;221291;1268;96703;-89
2023/06/07 05:38:53;;;;;;;9.60;4.20;;;;;;;22.76;48.41;100665.38;220774;1265;140185;-91
2023/06/07 05:43:53;;;;;;;9.30;4.40;;;;;;;23.42;47.78;100667.77;221140;1268;138196;-91
2023/06/07 05:48:53;;;;;;;7.10;3.90;;;;;;;24.10;45.95;100667.31;220796;1265;140348;-92
2023/06/07 05:53:54;;;;;;;11.10;3.90;;;;;;;24.82;45.38;100671.92;221112;1265;138148;-90
2023/06/07 05:58:54;;;;;;;10.30;4.10;;;;;;;25.65;43.98;100670.83;220610;1265;139848;-90
2023/06/07 06:03:55;;;;;;;9.90;4.40;;;;;;;26.40;42.13;100671.48;221254;1266;110607;-91
2023/06/07 06:08:55;;;;;;;7.90;4.30;;;;;;;26.86;40.56;100673.95;220728;1266;141629;-91
2023/06/07 06:13:56;;;;;;;10.00;4.80;;;;;;;27.50;40.46;100675.20;221307;1266;138659;-91
2023/06/07 06:18:57;;;;;;;11.20;4.10;;;;;;;28.23;38.82;100681.76;220491;1266;139850;-89
2023/06/07 06:23:57;;;;;;;10.70;4.40;;;;;;;28.54;38.05;100680.79;221060;1264;138419;-89
2023/06/07 06:28:58;;;;;;;11.50;4.60;;;;;;;28.93;37.53;100684.80;220320;1265;141689;-89
2023/06/07 06:33:59;;;;;;;10.00;4.20;;;;;;;29.36;37.54;100686.67;221067;1266;396726;-91
2023/06/07 06:38:59;;;;;;;15.00;4.90;;;;;;;29.87;36.28;100686.67;220759;1265;140109;-89
2023/06/07 06:44:00;;;;;;;12.50;4.80;;;;;;;30.19;35.71;100689.20;221119;1265;139589;-90
2023/06/07 06:49:00;;;;;;;12.90;4.50;;;;;;;30.63;34.67;100690.08;220785;1265;141216;-90
2023/06/07 06:54:01;;;;;;;13.70;4.30;;;;;;;30.78;33.78;100693.49;221031;1266;138157;-89
2023/06/07 06:59:01;;;;;;;8.40;4.00;;;;;;;30.91;33.26;100693.08;220915;1265;140601;-87
2023/06/07 07:04:02;;;;;;;12.50;4.60;;;;;;;30.96;32.63;100692.21;221329;1265;97916;-90
2023/06/07 07:09:03;;;;;;;7.80;4.10;;;;;;;31.07;32.14;100693.09;220770;1268;140035;-88
2023/06/07 07:14:03;;;;;;;9.90;4.30;;;;;;;31.23;32.00;100695.08;221284;1265;138091;-92
2023/06/07 07:19:04;;;;;;;8.10;3.80;;;;;;;31.28;31.46;100699.29;220499;1265;141717;-88
2023/06/07 07:24:05;;;;;;;9.30;4.10;;;;;;;31.33;31.40;100699.61;221078;1266;139246;-87
2023/06/07 07:29:05;;;;;;;10.00;4.20;;;;;;;31.39;30.55;100700.50;220642;1265;140223;-89
2023/06/07 07:34:06;;;;;;;11.70;4.30;;;;;;;31.59;31.26;100701.48;221187;1265;97032;-90
2023/06/07 07:39:06;;;;;;;13.60;4.10;;;;;;;31.87;30.55;100704.48;220839;1265;142901;-91
2023/06/07 07:44:07;;;;;;;7.10;4.00;;;;;;;32.37;30.63;100703.23;221501;1264;138364;-88
2023/06/07 07:49:07;;;;;;;7.70;4.00;;;;;;;32.60;29.74;100707.89;220598;1265;140265;-92
2023/06/07 07:54:08;;;;;;;10.90;4.10;;;;;;;32.84;29.33;100707.80;221120;1265;138880;-90
2023/06/07 07:59:08;;;;;;;8.30;4.50;;;;;;;32.77;29.02;100706.42;220528;1266;140075;-88
2023/06/07 08:04:09;;;;;;;7.90;4.40;;;;;;;33.21;29.08;100702.20;221071;1266;97890;-90
2023/06/07 08:09:12;;;;;;;7.60;3.50;;;;;;;34.10;29.32;100698.27;220278;1266;139924;-90
2023/06/07 08:14:12;;;;;;;10.40;4.30;;;;;;;34.55;28.02;100704.60;221054;1264;137856;-88
2023/06/07 08:19:13;;;;;;;11.50;4.60;;;;;;;34.76;28.43;100696.87;220399;1265;141115;-89
2023/06/07 08:24:13;;;;;;;8.80;4.00;;;;;;;35.09;26.87;100702.30;221101;1266;138229;-91
2023/06/07 08:29:13;;;;;;;6.80;3.80;;;;;;;35.31;26.33;100696.40;220484;1265;139652;-90
2023/06/07 08:34:14;;;;;;;8.10;4.20;;;;;;;35.75;26.26;100695.29;221055;1268;97593;-91
2023/06/07 08:39:14;;;;;;;8.30;4.20;;;;;;;35.78;25.76;100697.43;220613;1265;139675;-90
2023/06/07 08:44:15;;;;;;;7.00;4.00;;;;;;;35.95;25.67;100695.33;221209;1265;138336;-91
2023/06/07 08:49:16;;;;;;;8.50;4.10;;;;;;;36.40;25.41;100692.41;220670;1266;142597;-89
2023/06/07 08:54:20;;;;;;;9.00;4.70;;;;;;;36.77;25.00;100689.02;220821;1264;138488;-91
2023/06/07 08:59:24;;;;;;;7.50;4.00;;;;;;;37.19;24.09;100687.98;220571;1265;139992;-91
2023/06/07 09:04:25;;;;;;;7.80;4.20;;;;;;;37.44;24.27;100688.42;221211;1266;98421;-90
2023/06/07 09:09:26;;;;;;;9.80;4.20;;;;;;;37.62;24.05;100689.30;220543;1266;140224;-89
2023/06/07 09:14:31;;;;;;;10.70;4.10;;;;;;;37.83;24.07;100691.20;220984;1265;138535;-90
2023/06/07 09:19:42;;;;;;;116.00;11.80;;;;;;;38.06;23.11;100692.83;220305;1266;140321;-89
2023/06/07 09:24:42;;;;;;;10.00;4.30;;;;;;;37.73;22.09;100696.80;220985;1268;138984;-89
2023/06/07 09:29:43;;;;;;;11.30;4.00;;;;;;;37.72;23.10;100691.30;220611;1265;140533;-92
2023/06/07 09:34:44;;;;;;;10.30;4.10;;;;;;;38.00;22.65;100694.29;221433;1266;99173;-88
2023/06/07 09:39:44;;;;;;;11.50;3.70;;;;;;;37.94;22.29;100693.17;220638;1265;140540;-89
2023/06/07 09:44:45;;;;;;;5.40;3.50;;;;;;;37.93;22.07;100697.11;221472;1265;138844;-90
2023/06/07 09:49:45;;;;;;;9.20;4.10;;;;;;;37.27;21.89;100697.24;220883;1265;141052;-89
2023/06/07 09:54:46;;;;;;;7.10;3.70;;;;;;;37.08;22.73;100695.20;221247;1265;137950;-88
2023/06/07 09:59:58;;;;;;;7.70;3.80;;;;;;;36.80;21.51;100689.67;220730;1264;139986;-89
2023/06/07 10:04:59;;;;;;;9.30;3.40;;;;;;;36.65;21.86;100690.71;221320;1265;138520;-92
2023/06/07 10:10:01;;;;;;;7.00;3.60;;;;;;;37.03;21.26;100689.24;220911;1265;140005;-89
2023/06/07 10:15:03;;;;;;;6.30;3.50;;;;;;;36.39;22.14;100680.09;221319;1266;139266;-90
2023/06/07 10:20:04;;;;;;;7.40;3.40;;;;;;;36.49;22.10;100675.88;220782;1264;140033;-91
2023/06/07 10:25:20;;;;;;;8.00;3.40;;;;;;;36.79;22.00;100673.35;221030;1264;139629;-91
2023/06/07 10:30:24;;;;;;;7.40;3.50;;;;;;;37.08;21.47;100663.31;221087;1265;139582;-86
2023/06/07 10:35:25;;;;;;;7.70;3.70;;;;;;;36.91;20.94;100658.42;221223;1268;137973;-88
2023/06/07 10:40:26;;;;;;;9.50;3.90;;;;;;;36.73;20.97;100655.52;220750;1265;141694;-91
2023/06/07 10:45:27;;;;;;;8.50;3.80;;;;;;;37.37;20.66;100655.85;221402;1265;138238;-89
2023/06/07 10:50:27;;;;;;;9.00;3.60;;;;;;;37.74;20.01;100656.48;220851;1266;141240;-91
2023/06/07 10:55:31;;;;;;;6.90;3.00;;;;;;;38.06;20.29;100658.05;221554;1266;138081;-91
2023/06/07 11:00:33;;;;;;;6.50;3.20;;;;;;;38.67;20.49;100662.73;220847;1266;140994;-92
2023/06/07 11:05:55;;;;;;;9.20;3.90;;;;;;;39.33;19.92;100661.94;221532;1265;138026;-89
2023/06/07 11:11:00;;;;;;;7.60;3.40;;;;;;;40.01;19.16;100658.02;220665;1268;140113;-89
2023/06/07 11:16:23;;;;;;;6.10;3.10;;;;;;;40.34;18.74;100657.14;221393;1265;96585;-89
2023/06/07 11:21:27;;;;;;;9.20;3.40;;;;;;;40.81;18.79;100650.08;221078;1266;140329;-87
2023/06/07 11:26:27;;;;;;;6.20;3.30;;;;;;;40.08;17.58;100650.19;221354;1266;139077;-90
2023/06/07 11:31:27;;;;;;;7.50;3.40;;;;;;;39.02;18.03;100650.34;220835;1265;141460;-91
2023/06/07 11:36:34;;;;;;;8.00;3.50;;;;;;;38.44;18.61;100639.33;221179;1265;138559;-90
2023/06/07 11:41:35;;;;;;;7.70;3.10;;;;;;;38.42;19.01;100633.94;220745;1268;141297;-91
2023/06/07 11:46:38;;;;;;;8.00;3.60;;;;;;;38.54;19.66;100634.02;221353;1266;98112;-92
2023/06/07 11:51:39;;;;;;;5.40;3.10;;;;;;;38.61;18.70;100635.11;220714;1265;140311;-90
2023/06/07 11:56:43;;;;;;;5.70;3.00;;;;;;;38.64;18.76;100632.98;221309;1266;138827;-90
2023/06/07 12:01:44;;;;;;;7.90;3.20;;;;;;;38.63;18.20;100627.07;221026;1266;141229;-90
2023/06/07 12:06:46;;;;;;;7.80;3.00;;;;;;;38.66;18.41;100626.08;221107;1265;139618;-90
2023/06/07 12:11:47;;;;;;;6.20;2.90;;;;;;;38.25;17.86;100620.42;220628;1268;140013;-90
2023/06/07 12:16:48;;;;;;;5.90;3.30;;;;;;;37.62;18.77;100615.02;221214;1266;97114;-92
2023/06/07 12:21:48;;;;;;;6.10;2.90;;;;;;;37.95;18.92;100614.42;220343;1266;140052;-91
2023/06/07 12:26:49;;;;;;;6.40;3.10;;;;;;;38.28;19.23;100613.36;221014;1266;138115;-91
2023/06/07 12:31:52;;;;;;;6.40;2.90;;;;;;;38.89;19.40;100607.25;220581;1266;139914;-92
2023/06/07 12:36:53;;;;;;;8.70;3.80;;;;;;;39.47;19.23;100599.92;221075;1265;138150;-91
2023/06/07 12:41:53;;;;;;;5.10;3.10;;;;;;;39.24;17.99;100604.69;220193;1265;149868;-91
2023/06/07 12:46:54;;;;;;;8.50;3.40;;;;;;;37.94;18.53;100600.98;221490;1268;138201;-91
2023/06/07 12:51:55;;;;;;;5.80;3.20;;;;;;;37.41;18.97;100598.40;221096;1265;139938;-92
2023/06/07 12:56:56;;;;;;;5.10;2.80;;;;;;;37.50;20.59;100589.58;221147;1266;138213;-92
2023/06/07 13:01:57;;;;;;;6.00;2.90;;;;;;;37.83;20.44;100586.88;220621;1266;141075;-92
2023/06/07 13:06:57;;;;;;;7.20;3.50;;;;;;;37.65;20.08;100585.10;221012;1266;138323;-90
2023/06/07 13:12:00;;;;;;;6.40;2.80;;;;;;;37.94;19.85;100578.31;220429;1266;140901;-91
2023/06/07 13:17:00;;;;;;;5.80;3.20;;;;;;;37.93;18.97;100581.06;221085;1265;137907;-90
2023/06/07 13:22:01;;;;;;;5.30;3.10;;;;;;;37.10;18.88;100579.39;220666;1264;140697;-92
2023/06/07 13:27:02;;;;;;;5.40;3.10;;;;;;;36.71;20.15;100576.68;221001;1266;138182;-93
2023/06/07 13:32:02;;;;;;;5.20;3.00;;;;;;;36.57;20.48;100571.39;220705;1268;140059;-91
2023/06/07 13:37:03;;;;;;;6.90;2.90;;;;;;;36.76;20.83;100568.77;221413;1266;139230;-91
2023/06/07 13:42:03;;;;;;;8.10;3.10;;;;;;;36.59;19.36;100563.27;220942;1265;139515;-90
2023/06/07 13:47:04;;;;;;;6.80;3.20;;;;;;;36.58;19.22;100559.29;221417;1265;138715;-90
2023/06/07 13:52:06;;;;;;;6.90;2.90;;;;;;;36.70;20.13;100552.40;220857;1266;139759;-91
2023/06/07 13:57:07;;;;;;;5.10;3.10;;;;;;;36.66;20.39;100552.63;221254;1266;137744;-91
2023/06/07 14:02:12;;;;;;;7.20;3.10;;;;;;;36.27;19.99;100553.71;220716;1266;141125;-90
2023/06/07 14:07:12;;;;;;;11.10;3.30;;;;;;;35.55;19.96;100556.54;221251;1266;137922;-92
2023/06/07 14:12:13;;;;;;;6.10;2.90;;;;;;;35.03;19.92;100554.84;220909;1268;140296;-90
2023/06/07 14:17:13;;;;;;;5.90;2.80;;;;;;;34.77;20.28;100555.33;221306;1268;137938;-89
2023/06/07 14:22:14;;;;;;;5.80;2.60;;;;;;;34.55;20.04;100549.38;220745;1266;140997;-91
2023/06/07 14:27:15;;;;;;;9.00;3.30;;;;;;;34.61;23.06;100544.52;221323;1268;138864;-91
2023/06/07 14:32:15;;;;;;;6.10;2.90;;;;;;;35.07;22.46;100528.63;220992;1264;139986;-91
2023/06/07 14:37:15;;;;;;;8.00;3.10;;;;;;;35.21;21.41;100531.38;221132;1268;138025;-91
2023/06/07 14:42:19;;;;;;;5.90;3.30;;;;;;;35.01;22.48;100534.28;220697;1266;141176;-92
2023/06/07 14:47:19;;;;;;;8.10;3.30;;;;;;;34.65;22.19;100534.48;221287;1266;137997;-91
2023/06/07 14:52:20;;;;;;;8.90;3.10;;;;;;;34.17;21.59;100532.78;221119;1268;140113;-90
2023/06/07 14:57:21;;;;;;;8.20;2.90;;;;;;;33.75;21.92;100530.79;221427;1266;137938;-90
2023/06/07 15:02:21;;;;;;;7.40;3.20;;;;;;;33.41;22.73;100533.48;220857;1266;139736;-91
2023/06/07 15:07:23;;;;;;;6.70;3.30;;;;;;;33.23;23.26;100531.59;221443;1268;138339;-89
2023/06/07 15:12:23;;;;;;;5.60;3.10;;;;;;;33.09;23.77;100522.67;220896;1265;140038;-90
2023/06/07 15:17:24;;;;;;;9.10;3.50;;;;;;;33.09;22.81;100516.85;221139;1266;137991;-89
2023/06/07 15:22:24;;;;;;;7.60;3.30;;;;;;;32.79;22.67;100515.09;220745;1266;139573;-89
2023/06/07 15:27:25;;;;;;;8.80;3.40;;;;;;;32.63;22.07;100513.63;221314;1266;137960;-90
2023/06/07 15:32:25;;;;;;;7.30;3.60;;;;;;;32.11;21.87;100520.66;221106;1268;141881;-89
2023/06/07 15:37:26;;;;;;;6.10;3.40;;;;;;;31.58;22.00;100520.75;221448;1266;139233;-89
2023/06/07 15:42:27;;;;;;;5.30;3.20;;;;;;;31.12;23.06;100521.97;220890;1265;140115;-90
2023/06/07 15:47:27;;;;;;;7.60;3.60;;;;;;;30.90;24.27;100519.36;221268;1269;138491;-88
2023/06/07 15:52:27;;;;;;;6.00;3.40;;;;;;;30.78;25.71;100515.52;221048;1268;140356;-90
2023/06/07 15:57:28;;;;;;;4.60;2.70;;;;;;;30.73;26.11;100517.11;221312;1268;138488;-89
2023/06/07 16:02:29;;;;;;;5.90;3.40;;;;;;;30.68;26.96;100511.37;220834;1264;140533;-89
2023/06/07 16:07:29;;;;;;;5.60;2.80;;;;;;;30.68;27.46;100507.77;221491;1267;137918;-90
2023/06/07 16:12:30;;;;;;;6.70;3.30;;;;;;;30.46;25.31;100507.92;221100;1268;140564;-91
2023/06/07 16:17:30;;;;;;;8.20;3.80;;;;;;;30.05;26.10;100510.40;221764;1265;140143;-91
2023/06/07 16:22:31;;;;;;;7.40;3.70;;;;;;;29.75;26.62;100512.25;221420;1266;139692;-90
2023/06/07 16:27:31;;;;;;;5.90;3.40;;;;;;;29.61;27.66;100513.34;221557;1266;139986;-91
2023/06/07 16:32:32;;;;;;;12.90;4.10;;;;;;;29.53;28.02;100514.65;220726;1266;139456;-91
2023/06/07 16:37:32;;;;;;;9.30;3.10;;;;;;;29.46;28.41;100508.20;221206;1267;138326;-92
2023/06/07 16:42:32;;;;;;;7.30;3.60;;;;;;;29.37;28.62;100512.30;220707;1266;140111;-92
2023/06/07 16:47:33;;;;;;;7.40;3.20;;;;;;;29.33;29.67;100510.98;221114;1266;138762;-90
2023/06/07 16:52:33;;;;;;;10.70;3.80;;;;;;;29.26;29.64;100505.52;220564;1268;139720;-90
2023/06/07 16:57:34;;;;;;;8.40;3.40;;;;;;;29.11;29.61;100503.94;221119;1268;138577;-90
2023/06/07 17:02:35;;;;;;;9.90;3.50;;;;;;;28.89;30.25;100500.06;221153;1268;139713;-92
2023/06/07 17:07:35;;;;;;;7.00;3.60;;;;;;;28.61;30.59;100496.27;221207;1268;138564;-91
2023/06/07 17:12:35;;;;;;;8.80;3.80;;;;;;;28.37;30.99;100496.07;220527;1269;141610;-92
2023/06/07 17:17:36;;;;;;;10.20;4.90;;;;;;;28.12;30.12;100495.64;221615;1268;138612;-90
2023/06/07 17:22:36;;;;;;;7.10;3.60;;;;;;;27.89;29.33;100499.21;220672;1270;139788;-90
2023/06/07 17:27:37;;;;;;;11.50;3.80;;;;;;;27.82;30.41;100500.34;221212;1267;138015;-91
2023/06/07 17:32:37;;;;;;;10.30;4.00;;;;;;;27.76;31.80;100505.12;220610;1267;140972;-91
2023/06/07 17:37:37;;;;;;;12.00;4.50;;;;;;;27.62;32.62;100504.65;221114;1267;138495;-91
2023/06/07 17:42:38;;;;;;;6.50;3.30;;;;;;;27.39;31.21;100501.16;220605;1267;139756;-90
2023/06/07 17:47:52;;;;;;;5.50;3.20;;;;;;;27.23;31.56;100503.32;221212;1267;138144;-90
2023/06/07 17:52:53;;;;;;;9.20;3.50;;;;;;;27.14;32.24;100509.24;220905;1268;139446;-89
2023/06/07 17:57:54;;;;;;;9.10;3.40;;;;;;;26.99;32.11;100515.70;221308;1267;97713;-90
2023/06/07 18:02:54;;;;;;;6.70;3.80;;;;;;;26.86;32.36;100522.77;220672;1267;139903;-89
2023/06/07 18:07:55;;;;;;;8.50;3.60;;;;;;;26.71;32.61;100521.77;221231;1265;138031;-89
2023/06/07 18:12:55;;;;;;;6.30;3.20;;;;;;;26.56;32.75;100519.58;220821;1266;140453;-89
2023/06/07 18:17:56;;;;;;;9.90;4.10;;;;;;;26.44;33.43;100524.74;221648;1267;138654;-90
2023/06/07 18:22:56;;;;;;;10.20;3.70;;;;;;;26.32;33.39;100528.82;221157;1266;139779;-88
2023/06/07 18:27:57;;;;;;;14.90;4.40;;;;;;;26.12;33.81;100525.77;221597;1269;97935;-89
2023/06/07 18:32:58;;;;;;;8.80;4.00;;;;;;;25.92;34.81;100525.27;220564;1266;139736;-90
2023/06/07 18:37:58;;;;;;;6.40;3.30;;;;;;;25.74;35.77;100529.05;221127;1264;217863;-88
2023/06/07 18:42:59;;;;;;;7.00;3.70;;;;;;;25.48;36.24;100528.38;220820;1267;140110;-89
2023/06/07 18:48:00;;;;;;;10.20;4.20;;;;;;;25.25;37.18;100531.80;221424;1266;138122;-89
2023/06/07 18:53:02;;;;;;;9.90;4.20;;;;;;;25.03;37.65;100539.13;220930;1266;140304;-88
2023/06/07 18:58:02;;;;;;;7.30;4.10;;;;;;;24.75;38.16;100539.84;221410;1267;97901;-88
2023/06/07 19:03:03;;;;;;;10.50;4.60;;;;;;;24.52;39.28;100543.83;221127;1265;139904;-89
2023/06/07 19:08:03;;;;;;;9.80;4.40;;;;;;;24.27;39.91;100545.15;221284;1267;138175;-87
2023/06/07 19:13:04;;;;;;;12.50;5.40;;;;;;;23.99;40.52;100548.38;220916;1265;140521;-89
2023/06/07 19:18:04;;;;;;;12.00;5.60;;;;;;;23.67;41.28;100550.56;221489;1266;138719;-90
2023/06/07 19:23:05;;;;;;;10.80;5.00;;;;;;;23.37;41.53;100553.63;220978;1266;141589;-88
2023/06/07 19:28:06;;;;;;;10.40;4.80;;;;;;;23.08;41.43;100555.52;221713;1267;98434;-87
2023/06/07 19:33:09;;;;;;;13.80;6.20;;;;;;;22.80;42.19;100559.70;221042;1269;139895;-87
2023/06/07 19:38:10;;;;;;;13.30;4.80;;;;;;;22.51;43.38;100564.05;221554;1266;138215;-88
2023/06/07 19:43:10;;;;;;;13.20;5.40;;;;;;;22.22;44.88;100564.09;221060;1265;141395;-87
2023/06/07 19:48:11;;;;;;;11.90;5.10;;;;;;;21.93;46.09;100567.15;221683;1268;138279;-87
2023/06/07 19:53:11;;;;;;;9.60;4.80;;;;;;;21.67;46.44;100566.15;220887;1267;139952;-87
2023/06/07 19:58:12;;;;;;;14.80;5.10;;;;;;;21.42;46.84;100563.73;221628;1266;97960;-87
2023/06/07 20:03:12;;;;;;;12.80;5.70;;;;;;;21.21;47.08;100569.02;220801;1266;139606;-87
2023/06/07 20:08:12;;;;;;;15.40;6.60;;;;;;;21.00;47.50;100562.31;221216;1266;137934;-87
2023/06/07 20:13:16;;;;;;;19.60;6.80;;;;;;;20.76;47.84;100563.59;220956;1265;140644;-87
2023/06/07 20:18:17;;;;;;;14.00;6.70;;;;;;;20.58;48.54;100563.70;221242;1268;138104;-88
2023/06/07 20:23:17;;;;;;;15.90;6.00;;;;;;;20.46;49.15;100561.16;220798;1265;140800;-88
2023/06/07 20:28:18;;;;;;;13.00;6.50;;;;;;;20.35;49.63;100557.41;221589;1266;99312;-89
2023/06/07 20:33:18;;;;;;;11.40;5.30;;;;;;;20.24;48.80;100557.99;220785;1265;141411;-90
2023/06/07 20:38:18;;;;;;;13.60;5.70;;;;;;;20.19;47.28;100554.23;221254;1265;139686;-89
2023/06/07 20:43:19;;;;;;;11.30;5.70;;;;;;;20.15;46.88;100558.55;220629;1265;140155;-90
2023/06/07 20:48:20;;;;;;;9.90;5.50;;;;;;;20.10;46.43;100555.66;220969;1268;138052;-88
2023/06/07 20:53:20;;;;;;;10.80;5.70;;;;;;;20.10;45.26;100558.77;220757;1265;142062;-87
2023/06/07 20:58:22;;;;;;;11.20;5.60;;;;;;;20.11;45.51;100565.23;221526;1266;97943;-88
2023/06/07 21:03:22;;;;;;;9.10;5.30;;;;;;;20.10;45.14;100565.96;220707;1266;139590;-89
2023/06/07 21:08:22;;;;;;;12.10;5.30;;;;;;;20.10;44.62;100565.64;221326;1267;138392;-89
2023/06/07 21:13:23;;;;;;;11.20;5.10;;;;;;;20.11;44.37;100567.04;220616;1266;140396;-89
2023/06/07 21:18:24;;;;;;;10.10;4.90;;;;;;;20.13;43.82;100569.31;221244;1265;138474;-90
2023/06/07 21:23:24;;;;;;;8.80;4.20;;;;;;;20.16;43.55;100572.83;221169;1265;141478;-91
2023/06/07 21:28:25;;;;;;;9.90;4.00;;;;;;;20.16;43.43;100563.56;221566;1265;96660;-90
2023/06/07 21:33:27;;;;;;;13.60;4.60;;;;;;;20.18;43.40;100566.16;221206;1268;140456;-89
2023/06/07 21:38:28;;;;;;;9.20;4.70;;;;;;;20.20;42.95;100562.11;222129;1266;138171;-89
2023/06/07 21:43:28;;;;;;;10.70;4.70;;;;;;;20.29;42.90;100563.46;221490;1268;139846;-90
2023/06/07 21:48:28;;;;;;;10.10;5.10;;;;;;;20.37;42.72;100564.46;221619;1266;138672;-89
2023/06/07 21:53:29;;;;;;;9.00;4.70;;;;;;;20.30;43.06;100568.16;221302;1266;140676;-89
2023/06/07 21:58:29;;;;;;;9.10;5.20;;;;;;;20.16;44.43;100574.59;221742;1268;97930;-89
2023/06/07 22:03:31;;;;;;;12.10;6.00;;;;;;;19.99;45.49;100574.20;220806;1265;140321;-89
2023/06/07 22:08:32;;;;;;;12.80;7.40;;;;;;;19.80;46.18;100574.91;221136;1268;138045;-89
2023/06/07 22:13:36;;;;;;;14.60;8.60;;;;;;;19.61;46.87;100573.27;220548;1268;139824;-89
2023/06/07 22:18:37;;;;;;;16.60;9.10;;;;;;;19.45;47.57;100576.52;221144;1267;138803;-89
2023/06/07 22:23:38;;;;;;;14.30;8.40;;;;;;;19.30;47.92;100571.98;220682;1265;139756;-89
2023/06/07 22:28:40;;;;;;;18.10;10.00;;;;;;;19.13;48.51;100570.98;221149;1266;97860;-88
2023/06/07 22:33:40;;;;;;;16.20;7.60;;;;;;;19.00;49.02;100573.19;220500;1268;139605;-88
2023/06/07 22:38:40;;;;;;;12.60;7.40;;;;;;;18.89;49.19;100572.14;221219;1266;138228;-89
2023/06/07 22:43:41;;;;;;;18.60;7.40;;;;;;;18.76;49.34;100567.77;220691;1266;140574;-89